createdAt,value
2018-03-01T00:00:14.584Z,32.40
2018-03-01T00:01:14.573Z,33.50
2018-03-01T00:02:14.562Z,32.50
2018-03-01T00:03:14.549Z,34.40
2018-03-01T00:04:14.547Z,32.60
2018-03-01T00:05:14.530Z,35.20
2018-03-01T00:06:14.515Z,34.00
2018-03-01T00:07:14.504Z,35.90
2018-03-01T00:08:14.493Z,34.30
2018-03-01T00:09:14.482Z,31.80
2018-03-01T00:10:14.468Z,33.50
2018-03-01T00:11:14.457Z,34.60
2018-03-01T00:12:14.446Z,34.10
2018-03-01T00:13:14.439Z,30.00
2018-03-01T00:14:14.423Z,30.70
2018-03-01T00:15:14.413Z,33.40
2018-03-01T00:16:14.400Z,32.60
2018-03-01T00:17:14.390Z,32.10
2018-03-01T00:18:14.379Z,33.60
2018-03-01T00:19:14.366Z,35.80
2018-03-01T00:20:14.355Z,30.50
2018-03-01T00:21:14.344Z,34.10
2018-03-01T00:22:14.332Z,32.90
2018-03-01T00:23:14.321Z,34.30
2018-03-01T00:24:14.314Z,33.30
2018-03-01T00:25:14.298Z,34.70
2018-03-01T00:26:14.288Z,31.90
2018-03-01T00:27:14.280Z,32.10
2018-03-01T00:28:14.265Z,34.10
2018-03-01T00:29:14.255Z,33.90
2018-03-01T00:30:14.241Z,33.10
2018-03-01T00:31:14.232Z,32.30
2018-03-01T00:32:14.221Z,30.90
2018-03-01T00:33:14.209Z,28.70
2018-03-01T00:34:14.198Z,31.00
2018-03-01T00:35:14.189Z,28.10
2018-03-01T00:36:14.174Z,29.80
2018-03-01T00:37:14.164Z,29.50
2018-03-01T00:38:14.152Z,32.70
2018-03-01T00:39:14.140Z,29.60
2018-03-01T00:40:14.131Z,29.50
2018-03-01T00:41:14.119Z,30.00
2018-03-01T00:42:14.110Z,27.90
2018-03-01T00:43:14.095Z,31.80
2018-03-01T00:44:14.086Z,29.20
2018-03-01T00:45:14.080Z,31.80
2018-03-01T00:46:14.062Z,29.20
2018-03-01T00:47:14.051Z,31.20
2018-03-01T00:48:14.041Z,31.60
2018-03-01T00:49:14.028Z,30.50
2018-03-01T00:50:14.017Z,30.00
2018-03-01T00:51:14.004Z,34.10
2018-03-01T00:52:13.992Z,29.80
2018-03-01T00:53:13.981Z,31.30
2018-03-01T00:54:13.970Z,31.40
2018-03-01T00:55:13.958Z,38.10
2018-03-01T00:56:13.948Z,32.90
2018-03-01T00:57:13.939Z,27.90
2018-03-01T00:58:13.925Z,28.50
2018-03-01T00:59:13.913Z,29.80
2018-03-01T01:00:13.902Z,30.80
2018-03-01T01:01:13.891Z,34.80
2018-03-01T01:02:13.878Z,27.10
2018-03-01T01:03:13.866Z,30.00
2018-03-01T01:04:13.855Z,33.30
2018-03-01T01:05:13.845Z,33.40
2018-03-01T01:06:13.831Z,33.00
2018-03-01T01:07:13.822Z,30.30
2018-03-01T01:08:13.808Z,29.70
2018-03-01T01:09:13.797Z,31.60
2018-03-01T01:10:13.785Z,28.60
2018-03-01T01:11:13.774Z,28.00
2018-03-01T01:12:13.761Z,30.60
2018-03-01T01:13:13.752Z,33.60
2018-03-01T01:14:13.738Z,34.90
2018-03-01T01:15:13.728Z,31.90
2018-03-01T01:16:13.718Z,30.70
2018-03-01T01:17:13.706Z,29.40
2018-03-01T01:18:13.694Z,35.20
2018-03-01T01:20:13.672Z,30.80
2018-03-01T01:21:13.660Z,32.50
2018-03-01T01:22:13.648Z,29.70
2018-03-01T01:23:13.637Z,31.10
2018-03-01T01:24:13.625Z,33.50
2018-03-01T01:25:13.614Z,32.00
2018-03-01T01:26:13.601Z,33.30
2018-03-01T01:27:13.595Z,32.20
2018-03-01T01:28:13.580Z,30.70
2018-03-01T01:29:13.567Z,32.50
2018-03-01T01:30:13.556Z,30.10
2018-03-01T01:31:13.586Z,30.10
2018-03-01T01:32:13.533Z,26.60
2018-03-01T01:33:13.521Z,32.40
2018-03-01T01:34:13.510Z,35.90
2018-03-01T01:35:13.509Z,31.10
2018-03-01T01:36:13.490Z,28.80
2018-03-01T01:37:13.476Z,31.00
2018-03-01T01:38:13.464Z,33.00
2018-03-01T01:39:13.452Z,32.40
2018-03-01T01:40:13.442Z,26.10
2018-03-01T01:41:13.430Z,34.10
2018-03-01T01:42:13.418Z,30.80
2018-03-01T01:43:13.407Z,31.70
2018-03-01T01:44:13.394Z,30.00
2018-03-01T01:45:13.387Z,31.30
2018-03-01T01:46:13.373Z,31.60
2018-03-01T01:47:13.361Z,33.00
2018-03-01T01:48:13.350Z,37.10
2018-03-01T01:49:13.340Z,33.70
2018-03-01T01:50:13.327Z,32.60
2018-03-01T01:51:13.315Z,32.70
2018-03-01T01:52:13.304Z,37.70
2018-03-01T01:53:13.293Z,28.60
2018-03-01T01:54:13.281Z,31.00
2018-03-01T01:55:13.269Z,28.80
2018-03-01T01:56:13.260Z,30.10
2018-03-01T01:57:13.248Z,31.90
2018-03-01T01:58:13.236Z,34.60
2018-03-01T01:59:13.224Z,31.80
2018-03-01T02:00:13.214Z,33.60
2018-03-01T02:01:13.203Z,33.30
2018-03-01T02:02:13.191Z,31.60
2018-03-01T02:03:13.179Z,29.80
2018-03-01T02:04:13.168Z,31.60
2018-03-01T02:05:13.157Z,31.20
2018-03-01T02:06:13.144Z,28.60
2018-03-01T02:07:13.133Z,32.60
2018-03-01T02:08:13.123Z,33.40
2018-03-01T02:09:13.113Z,31.40
2018-03-01T02:10:13.103Z,31.00
2018-03-01T02:11:13.089Z,32.30
2018-03-01T02:12:13.078Z,30.30
2018-03-01T02:13:13.067Z,31.90
2018-03-01T02:14:13.055Z,30.40
2018-03-01T02:15:13.044Z,29.20
2018-03-01T02:16:13.032Z,33.30
2018-03-01T02:17:13.021Z,31.80
2018-03-01T02:18:13.009Z,32.20
2018-03-01T02:19:12.998Z,30.00
2018-03-01T02:20:12.986Z,30.10
2018-03-01T02:21:12.976Z,32.90
2018-03-01T02:22:12.964Z,34.10
2018-03-01T02:23:13.256Z,31.00
2018-03-01T02:24:12.940Z,32.40
2018-03-01T02:25:12.931Z,30.40
2018-03-01T02:26:12.918Z,33.60
2018-03-01T02:27:12.906Z,31.80
2018-03-01T02:28:12.895Z,28.90
2018-03-01T02:29:12.885Z,33.00
2018-03-01T02:30:12.874Z,31.40
2018-03-01T02:31:12.861Z,29.70
2018-03-01T02:32:12.849Z,32.40
2018-03-01T02:33:12.839Z,30.30
2018-03-01T02:34:12.827Z,30.50
2018-03-01T02:35:12.817Z,27.70
2018-03-01T02:36:12.805Z,34.00
2018-03-01T02:37:12.794Z,33.70
2018-03-01T02:38:12.782Z,33.00
2018-03-01T02:39:12.771Z,33.10
2018-03-01T02:40:12.759Z,30.00
2018-03-01T02:41:12.749Z,33.50
2018-03-01T02:42:12.738Z,29.00
2018-03-01T02:43:12.730Z,28.40
2018-03-01T02:44:12.714Z,33.40
2018-03-01T02:45:12.702Z,27.50
2018-03-01T02:46:12.691Z,33.30
2018-03-01T02:47:12.680Z,32.80
2018-03-01T02:48:12.672Z,29.20
2018-03-01T02:49:12.657Z,28.70
2018-03-01T02:50:12.644Z,30.20
2018-03-01T02:51:12.634Z,34.40
2018-03-01T02:52:12.623Z,32.10
2018-03-01T02:53:12.614Z,31.80
2018-03-01T02:54:12.601Z,33.80
2018-03-01T02:55:12.590Z,33.30
2018-03-01T02:56:12.576Z,31.40
2018-03-01T02:57:12.564Z,29.60
2018-03-01T02:58:12.553Z,30.30
2018-03-01T02:59:12.541Z,32.70
2018-03-01T03:00:12.530Z,29.70
2018-03-01T03:01:12.519Z,30.70
2018-03-01T03:02:12.507Z,31.80
2018-03-01T03:03:12.497Z,30.30
2018-03-01T03:04:12.486Z,31.90
2018-03-01T03:05:12.474Z,33.00
2018-03-01T03:06:12.462Z,29.30
2018-03-01T03:07:12.450Z,30.50
2018-03-01T03:08:12.438Z,31.40
2018-03-01T03:09:12.428Z,30.60
2018-03-01T03:10:12.419Z,29.70
2018-03-01T03:11:12.405Z,29.20
2018-03-01T03:12:12.393Z,32.10
2018-03-01T03:13:12.384Z,28.80
2018-03-01T03:14:12.370Z,33.60
2018-03-01T03:15:12.361Z,30.90
2018-03-01T03:16:12.348Z,33.80
2018-03-01T03:17:12.338Z,29.60
2018-03-01T03:18:12.327Z,30.60
2018-03-01T03:19:12.313Z,32.00
2018-03-01T03:20:12.304Z,44.30
2018-03-01T03:21:12.291Z,35.10
2018-03-01T03:22:12.280Z,33.40
2018-03-01T03:23:12.268Z,29.90
2018-03-01T03:24:12.259Z,30.50
2018-03-01T03:25:12.246Z,29.70
2018-03-01T03:26:12.282Z,36.00
2018-03-01T03:27:12.222Z,33.30
2018-03-01T03:28:12.211Z,32.40
2018-03-01T03:29:12.199Z,30.70
2018-03-01T03:30:12.189Z,33.20
2018-03-01T03:31:12.180Z,33.20
2018-03-01T03:32:12.165Z,30.90
2018-03-01T03:33:12.155Z,33.60
2018-03-01T03:34:12.143Z,29.20
2018-03-01T03:35:12.132Z,33.80
2018-03-01T03:36:12.120Z,33.80
2018-03-01T03:37:12.109Z,33.60
2018-03-01T03:38:12.096Z,34.20
2018-03-01T03:39:12.088Z,31.80
2018-03-01T03:40:12.075Z,29.00
2018-03-01T03:41:12.062Z,33.20
2018-03-01T03:42:12.050Z,29.90
2018-03-01T03:43:12.039Z,33.90
2018-03-01T03:44:12.041Z,33.30
2018-03-01T03:45:12.017Z,33.10
2018-03-01T03:46:12.004Z,33.20
2018-03-01T03:47:11.993Z,30.70
2018-03-01T03:48:11.982Z,34.20
2018-03-01T03:49:11.971Z,33.30
2018-03-01T03:50:11.961Z,35.90
2018-03-01T03:51:11.954Z,34.10
2018-03-01T03:52:11.950Z,34.50
2018-03-01T03:53:11.926Z,34.80
2018-03-01T03:54:11.914Z,35.80
2018-03-01T03:55:11.902Z,38.70
2018-03-01T03:56:11.891Z,37.00
2018-03-01T03:57:11.880Z,32.70
2018-03-01T03:58:11.868Z,33.30
2018-03-01T03:59:11.863Z,33.70
2018-03-01T04:00:11.845Z,34.80
2018-03-01T04:01:11.835Z,34.30
2018-03-01T04:02:11.823Z,38.70
2018-03-01T04:03:11.813Z,33.60
2018-03-01T04:04:11.804Z,31.70
2018-03-01T04:05:11.789Z,34.70
2018-03-01T04:06:11.778Z,31.60
2018-03-01T04:07:11.768Z,34.90
2018-03-01T04:08:11.755Z,33.20
2018-03-01T04:09:11.745Z,32.90
2018-03-01T04:10:11.737Z,35.70
2018-03-01T04:11:11.721Z,33.40
2018-03-01T04:12:11.710Z,35.60
2018-03-01T04:13:11.705Z,32.00
2018-03-01T04:14:11.687Z,32.80
2018-03-01T04:15:11.675Z,36.30
2018-03-01T04:16:11.665Z,35.00
2018-03-01T04:17:11.654Z,34.80
2018-03-01T04:18:11.642Z,35.20
2018-03-01T04:19:11.630Z,36.00
2018-03-01T04:20:11.620Z,31.80
2018-03-01T04:21:11.609Z,35.20
2018-03-01T04:22:11.597Z,33.60
2018-03-01T04:23:11.585Z,35.30
2018-03-01T04:24:11.573Z,30.20
2018-03-01T04:25:11.564Z,33.90
2018-03-01T04:26:11.550Z,34.50
2018-03-01T04:27:11.540Z,33.70
2018-03-01T04:28:11.527Z,35.00
2018-03-01T04:29:11.517Z,31.30
2018-03-01T04:30:11.506Z,34.70
2018-03-01T04:31:11.493Z,34.20
2018-03-01T04:32:11.483Z,33.30
2018-03-01T04:33:11.472Z,35.20
2018-03-01T04:34:11.460Z,38.20
2018-03-01T04:35:11.449Z,33.10
2018-03-01T04:36:11.436Z,34.30
2018-03-01T04:37:11.425Z,37.10
2018-03-01T04:38:11.414Z,36.50
2018-03-01T04:39:11.403Z,35.90
2018-03-01T04:40:11.390Z,35.90
2018-03-01T04:41:11.381Z,32.00
2018-03-01T04:42:11.369Z,31.30
2018-03-01T04:43:11.357Z,34.70
2018-03-01T04:44:11.345Z,31.10
2018-03-01T04:45:11.335Z,34.40
2018-03-01T04:46:11.322Z,35.60
2018-03-01T04:47:11.311Z,34.90
2018-03-01T04:48:11.300Z,36.40
2018-03-01T04:49:11.289Z,37.70
2018-03-01T04:50:11.277Z,35.90
2018-03-01T04:51:11.265Z,37.30
2018-03-01T04:52:11.257Z,33.40
2018-03-01T04:53:11.243Z,34.10
2018-03-01T04:54:11.230Z,33.30
2018-03-01T04:55:11.220Z,38.80
2018-03-01T04:56:11.209Z,33.00
2018-03-01T04:57:11.197Z,35.90
2018-03-01T04:58:11.186Z,33.40
2018-03-01T04:59:11.174Z,34.90
2018-03-01T05:00:11.163Z,33.20
2018-03-01T05:01:11.152Z,34.10
2018-03-01T05:02:11.140Z,35.30
2018-03-01T05:03:11.129Z,34.20
2018-03-01T05:04:11.117Z,37.40
2018-03-01T05:05:11.106Z,34.10
2018-03-01T05:06:11.095Z,30.90
2018-03-01T05:07:11.083Z,37.40
2018-03-01T05:08:11.071Z,33.30
2018-03-01T05:09:11.060Z,30.60
2018-03-01T05:10:11.048Z,35.00
2018-03-01T05:11:11.037Z,33.90
2018-03-01T05:12:11.026Z,35.70
2018-03-01T05:13:11.015Z,32.00
2018-03-01T05:14:11.002Z,34.10
2018-03-01T05:15:10.992Z,31.80
2018-03-01T05:16:10.981Z,33.40
2018-03-01T05:17:10.968Z,36.70
2018-03-01T05:18:10.957Z,39.90
2018-03-01T05:19:10.945Z,35.40
2018-03-01T05:20:10.934Z,35.80
2018-03-01T05:21:10.921Z,37.50
2018-03-01T05:22:10.910Z,36.20
2018-03-01T05:23:10.900Z,34.70
2018-03-01T05:24:10.888Z,36.60
2018-03-01T05:25:10.877Z,35.30
2018-03-01T05:26:10.865Z,34.30
2018-03-01T05:27:10.853Z,36.20
2018-03-01T05:28:10.843Z,30.60
2018-03-01T05:29:10.831Z,36.70
2018-03-01T05:30:10.819Z,33.70
2018-03-01T05:31:10.808Z,36.00
2018-03-01T05:32:10.797Z,33.60
2018-03-01T05:33:10.785Z,36.10
2018-03-01T05:34:10.773Z,33.60
2018-03-01T05:35:10.765Z,33.00
2018-03-01T05:36:10.750Z,36.30
2018-03-01T05:37:10.739Z,37.90
2018-03-01T05:38:10.727Z,33.90
2018-03-01T05:39:10.716Z,33.20
2018-03-01T05:40:10.705Z,32.40
2018-03-01T05:41:10.693Z,38.60
2018-03-01T05:42:10.681Z,32.10
2018-03-01T05:43:10.671Z,36.20
2018-03-01T05:44:10.659Z,31.30
2018-03-01T05:45:10.646Z,33.00
2018-03-01T05:46:10.635Z,40.60
2018-03-01T05:47:10.623Z,33.20
2018-03-01T05:48:10.612Z,35.60
2018-03-01T05:49:10.602Z,32.80
2018-03-01T05:50:10.589Z,34.60
2018-03-01T05:51:10.578Z,33.90
2018-03-01T05:52:10.566Z,36.70
2018-03-01T05:53:10.556Z,37.30
2018-03-01T05:54:10.546Z,32.30
2018-03-01T05:55:10.531Z,39.50
2018-03-01T05:56:10.521Z,35.60
2018-03-01T05:57:10.510Z,35.60
2018-03-01T05:58:10.498Z,32.00
2018-03-01T05:59:10.485Z,33.50
2018-03-01T06:00:10.476Z,32.90
2018-03-01T06:01:10.464Z,34.00
2018-03-01T06:02:10.450Z,34.60
2018-03-01T06:03:10.440Z,33.80
2018-03-01T06:04:10.431Z,33.90
2018-03-01T06:05:10.417Z,35.80
2018-03-01T06:06:10.405Z,36.50
2018-03-01T06:07:10.393Z,35.30
2018-03-01T06:08:10.383Z,32.30
2018-03-01T06:09:10.373Z,36.80
2018-03-01T06:10:10.358Z,35.50
2018-03-01T06:11:10.348Z,35.00
2018-03-01T06:12:10.335Z,33.20
2018-03-01T06:13:10.323Z,36.50
2018-03-01T06:14:10.311Z,38.30
2018-03-01T06:15:10.301Z,37.80
2018-03-01T06:16:10.289Z,35.50
2018-03-01T06:17:10.276Z,36.10
2018-03-01T06:18:10.269Z,37.90
2018-03-01T06:19:10.255Z,37.60
2018-03-01T06:20:10.243Z,40.20
2018-03-01T06:21:10.231Z,36.80
2018-03-01T06:22:10.220Z,35.80
2018-03-01T06:23:10.206Z,36.20
2018-03-01T06:24:10.196Z,32.10
2018-03-01T06:25:10.184Z,35.60
2018-03-01T06:26:10.170Z,39.10
2018-03-01T06:27:10.161Z,34.80
2018-03-01T06:28:10.149Z,36.00
2018-03-01T06:29:10.138Z,45.40
2018-03-01T06:30:10.125Z,44.10
2018-03-01T06:31:10.114Z,36.30
2018-03-01T06:32:10.102Z,43.80
2018-03-01T06:33:10.091Z,39.40
2018-03-01T06:34:10.081Z,37.30
2018-03-01T06:35:10.067Z,36.40
2018-03-01T06:36:10.064Z,36.20
2018-03-01T06:37:10.044Z,38.90
2018-03-01T06:38:10.032Z,39.10
2018-03-01T06:39:10.021Z,39.20
2018-03-01T06:40:10.009Z,41.80
2018-03-01T06:41:09.997Z,38.20
2018-03-01T06:42:09.987Z,33.90
2018-03-01T06:43:09.974Z,39.10
2018-03-01T06:44:09.963Z,36.50
2018-03-01T06:45:09.951Z,35.60
2018-03-01T06:46:09.939Z,42.30
2018-03-01T06:47:09.928Z,39.90
2018-03-01T06:48:09.918Z,38.50
2018-03-01T06:49:09.909Z,35.70
2018-03-01T06:50:09.894Z,34.40
2018-03-01T06:51:09.883Z,33.40
2018-03-01T06:52:09.873Z,40.10
2018-03-01T06:53:09.861Z,32.80
2018-03-01T06:54:09.851Z,39.20
2018-03-01T06:55:09.837Z,39.00
2018-03-01T06:56:09.825Z,37.20
2018-03-01T06:57:09.815Z,34.80
2018-03-01T06:58:09.803Z,35.80
2018-03-01T06:59:09.792Z,36.80
2018-03-01T07:00:09.781Z,35.50
2018-03-01T07:01:09.769Z,35.00
2018-03-01T07:02:09.759Z,40.00
2018-03-01T07:03:09.747Z,41.60
2018-03-01T07:04:09.736Z,35.00
2018-03-01T07:05:09.725Z,35.70
2018-03-01T07:06:09.713Z,37.40
2018-03-01T07:07:09.703Z,35.10
2018-03-01T07:08:09.692Z,35.00
2018-03-01T07:09:09.680Z,34.70
2018-03-01T07:10:09.671Z,37.80
2018-03-01T07:11:09.712Z,34.30
2018-03-01T07:12:09.647Z,33.10
2018-03-01T07:13:09.635Z,36.00
2018-03-01T07:14:09.625Z,34.80
2018-03-01T07:15:09.613Z,36.60
2018-03-01T07:16:09.601Z,35.80
2018-03-01T07:17:09.593Z,32.70
2018-03-01T07:18:09.579Z,37.10
2018-03-01T07:19:09.573Z,35.60
2018-03-01T07:20:09.558Z,35.70
2018-03-01T07:21:09.547Z,33.20
2018-03-01T07:22:09.856Z,37.40
2018-03-01T07:23:09.526Z,34.90
2018-03-01T07:24:09.515Z,34.90
2018-03-01T07:25:09.506Z,33.70
2018-03-01T07:26:09.494Z,35.10
2018-03-01T07:27:09.482Z,32.60
2018-03-01T07:28:09.472Z,36.80
2018-03-01T07:29:09.463Z,33.30
2018-03-01T07:30:09.451Z,34.40
2018-03-01T07:31:09.441Z,33.70
2018-03-01T07:32:09.430Z,41.30
2018-03-01T07:33:09.420Z,35.40
2018-03-01T07:34:09.409Z,37.10
2018-03-01T07:35:09.399Z,38.70
2018-03-01T07:36:09.389Z,40.00
2018-03-01T07:37:09.380Z,35.80
2018-03-01T07:38:09.367Z,34.70
2018-03-01T07:39:09.357Z,40.60
2018-03-01T07:40:09.345Z,36.60
2018-03-01T07:41:09.338Z,39.90
2018-03-01T07:42:09.325Z,41.10
2018-03-01T07:43:09.315Z,39.90
2018-03-01T07:44:09.306Z,37.00
2018-03-01T07:45:09.296Z,42.10
2018-03-01T07:46:09.284Z,36.70
2018-03-01T07:47:09.271Z,39.90
2018-03-01T07:48:09.264Z,36.10
2018-03-01T07:49:09.253Z,35.80
2018-03-01T07:50:09.241Z,37.60
2018-03-01T07:51:09.231Z,35.20
2018-03-01T07:52:09.221Z,40.60
2018-03-01T07:53:09.211Z,39.70
2018-03-01T07:54:09.199Z,37.20
2018-03-01T07:55:09.189Z,38.00
2018-03-01T07:56:09.179Z,36.10
2018-03-01T07:57:09.178Z,34.30
2018-03-01T07:58:09.158Z,36.50
2018-03-01T07:59:09.148Z,31.50
2018-03-01T08:00:09.142Z,37.20
2018-03-01T08:01:09.130Z,34.70
2018-03-01T08:02:09.117Z,34.60
2018-03-01T08:03:09.108Z,36.70
2018-03-01T08:04:09.100Z,37.50
2018-03-01T08:05:09.089Z,34.10
2018-03-01T08:06:09.078Z,35.50
2018-03-01T08:07:09.069Z,35.30
2018-03-01T08:08:09.058Z,37.50
2018-03-01T08:09:09.050Z,39.80
2018-03-01T08:10:09.040Z,38.80
2018-03-01T08:11:09.032Z,35.90
2018-03-01T08:12:09.022Z,37.40
2018-03-01T08:13:09.014Z,35.90
2018-03-01T08:14:09.004Z,43.10
2018-03-01T08:15:08.995Z,38.40
2018-03-01T08:16:08.987Z,38.20
2018-03-01T08:17:08.981Z,38.40
2018-03-01T08:18:08.967Z,42.30
2018-03-01T08:19:08.958Z,39.00
2018-03-01T08:20:08.948Z,34.70
2018-03-01T08:21:08.940Z,38.20
2018-03-01T08:22:08.930Z,32.50
2018-03-01T08:23:08.922Z,39.00
2018-03-01T08:24:08.910Z,35.10
2018-03-01T08:25:08.901Z,38.10
2018-03-01T08:26:08.893Z,34.00
2018-03-01T08:27:08.883Z,34.30
2018-03-01T08:28:08.872Z,35.80
2018-03-01T08:29:08.866Z,36.70
2018-03-01T08:30:08.852Z,37.00
2018-03-01T08:31:08.843Z,45.70
2018-03-01T08:32:08.833Z,36.70
2018-03-01T08:33:08.824Z,36.90
2018-03-01T08:34:08.814Z,37.40
2018-03-01T08:35:08.804Z,35.10
2018-03-01T08:36:08.794Z,41.80
2018-03-01T08:37:08.787Z,37.10
2018-03-01T08:38:08.774Z,41.40
2018-03-01T08:39:08.764Z,38.50
2018-03-01T08:40:08.754Z,39.00
2018-03-01T08:41:09.012Z,34.40
2018-03-01T08:42:08.735Z,40.00
2018-03-01T08:43:08.726Z,41.80
2018-03-01T08:44:08.715Z,37.90
2018-03-01T08:45:08.706Z,37.50
2018-03-01T08:46:08.702Z,37.80
2018-03-01T08:47:08.686Z,35.50
2018-03-01T08:48:08.676Z,40.90
2018-03-01T08:49:08.666Z,39.20
2018-03-01T08:50:08.656Z,37.20
2018-03-01T08:51:08.646Z,37.50
2018-03-01T08:52:08.636Z,36.90
2018-03-01T08:53:08.626Z,38.50
2018-03-01T08:54:08.616Z,37.50
2018-03-01T08:55:08.607Z,39.70
2018-03-01T08:56:08.596Z,40.20
2018-03-01T08:57:08.588Z,41.00
2018-03-01T08:58:08.577Z,38.20
2018-03-01T08:59:08.566Z,41.80
2018-03-01T09:00:08.557Z,41.80
2018-03-01T09:01:08.547Z,41.80
2018-03-01T09:02:08.536Z,39.50
2018-03-01T09:03:08.529Z,39.20
2018-03-01T09:04:08.518Z,38.40
2018-03-01T09:05:08.506Z,39.20
2018-03-01T09:06:08.496Z,39.90
2018-03-01T09:07:08.486Z,37.90
2018-03-01T09:08:08.480Z,37.60
2018-03-01T09:09:08.467Z,44.40
2018-03-01T09:10:08.457Z,47.10
2018-03-01T09:11:08.446Z,44.50
2018-03-01T09:12:08.437Z,50.70
2018-03-01T09:13:08.428Z,37.10
2018-03-01T09:14:08.417Z,37.50
2018-03-01T09:15:08.406Z,39.80
2018-03-01T09:16:08.398Z,41.70
2018-03-01T09:17:08.666Z,38.80
2018-03-01T09:18:08.386Z,41.70
2018-03-01T09:19:08.368Z,40.30
2018-03-01T09:20:08.358Z,40.50
2018-03-01T09:21:08.351Z,42.60
2018-03-01T09:22:08.343Z,37.60
2018-03-01T09:23:08.334Z,40.90
2018-03-01T09:24:08.320Z,42.20
2018-03-01T09:25:08.310Z,37.40
2018-03-01T09:26:08.299Z,43.90
2018-03-01T09:27:08.291Z,40.10
2018-03-01T09:28:08.281Z,41.90
2018-03-01T09:29:08.271Z,38.60
2018-03-01T09:30:08.260Z,37.50
2018-03-01T09:31:08.252Z,39.40
2018-03-01T09:32:08.452Z,46.10
2018-03-01T09:33:08.234Z,41.30
2018-03-01T09:34:08.228Z,40.60
2018-03-01T09:35:08.307Z,40.80
2018-03-01T09:36:08.202Z,39.20
2018-03-01T09:37:08.195Z,38.00
2018-03-01T09:38:08.183Z,43.00
2018-03-01T09:39:08.178Z,40.50
2018-03-01T09:40:08.482Z,38.40
2018-03-01T09:41:08.155Z,43.80
2018-03-01T09:42:08.143Z,37.80
2018-03-01T09:43:08.134Z,42.50
2018-03-01T09:44:08.124Z,37.60
2018-03-01T09:45:08.113Z,46.20
2018-03-01T09:46:08.104Z,41.40
2018-03-01T09:47:08.092Z,38.60
2018-03-01T09:48:08.084Z,37.20
2018-03-01T09:49:08.074Z,40.80
2018-03-01T09:50:08.064Z,39.00
2018-03-01T09:51:08.054Z,40.60
2018-03-01T09:52:08.045Z,46.20
2018-03-01T09:53:08.037Z,40.20
2018-03-01T09:54:08.025Z,40.70
2018-03-01T09:55:08.014Z,38.40
2018-03-01T09:56:08.005Z,42.90
2018-03-01T09:57:07.995Z,42.00
2018-03-01T09:58:07.984Z,40.50
2018-03-01T09:59:07.974Z,39.50
2018-03-01T10:00:07.964Z,40.10
2018-03-01T10:01:07.955Z,42.80
2018-03-01T10:02:07.944Z,42.00
2018-03-01T10:03:07.933Z,44.80
2018-03-01T10:04:07.925Z,46.10
2018-03-01T10:05:07.920Z,42.70
2018-03-01T10:06:07.904Z,40.40
2018-03-01T10:07:07.911Z,40.20
2018-03-01T10:08:07.884Z,41.30
2018-03-01T10:09:07.876Z,42.20
2018-03-01T10:10:07.864Z,41.90
2018-03-01T10:11:07.854Z,38.80
2018-03-01T10:12:07.844Z,38.60
2018-03-01T10:13:07.834Z,41.30
2018-03-01T10:14:07.822Z,39.70
2018-03-01T10:15:07.814Z,40.60
2018-03-01T10:16:07.803Z,42.50
2018-03-01T10:17:07.793Z,41.60
2018-03-01T10:18:07.783Z,40.10
2018-03-01T10:19:07.772Z,48.10
2018-03-01T10:20:07.762Z,41.10
2018-03-01T10:21:07.752Z,42.20
2018-03-01T10:22:07.742Z,46.30
2018-03-01T10:23:07.731Z,42.40
2018-03-01T10:24:07.722Z,39.80
2018-03-01T10:25:07.712Z,40.30
2018-03-01T10:26:07.700Z,43.40
2018-03-01T10:27:07.691Z,41.20
2018-03-01T10:28:07.682Z,43.00
2018-03-01T10:29:07.672Z,39.40
2018-03-01T10:30:07.660Z,41.40
2018-03-01T10:31:07.652Z,42.00
2018-03-01T10:32:07.641Z,39.90
2018-03-01T10:33:07.630Z,39.40
2018-03-01T10:34:07.623Z,46.50
2018-03-01T10:35:07.611Z,41.30
2018-03-01T10:36:07.601Z,39.20
2018-03-01T10:37:07.640Z,41.50
2018-03-01T10:38:07.580Z,39.50
2018-03-01T10:39:07.572Z,44.00
2018-03-01T10:40:07.559Z,40.20
2018-03-01T10:41:07.551Z,41.20
2018-03-01T10:42:07.540Z,40.30
2018-03-01T10:43:07.532Z,44.00
2018-03-01T10:44:07.522Z,38.20
2018-03-01T10:45:07.510Z,42.30
2018-03-01T10:46:07.502Z,40.70
2018-03-01T10:47:07.490Z,45.60
2018-03-01T10:48:07.482Z,43.20
2018-03-01T10:49:07.472Z,41.50
2018-03-01T10:50:07.461Z,45.10
2018-03-01T10:51:07.452Z,41.30
2018-03-01T10:52:07.444Z,42.80
2018-03-01T10:53:07.432Z,45.10
2018-03-01T10:54:07.422Z,46.30
2018-03-01T10:55:07.412Z,42.70
2018-03-01T10:56:07.403Z,40.70
2018-03-01T10:57:07.393Z,38.40
2018-03-01T10:58:07.383Z,43.50
2018-03-01T10:59:07.373Z,48.60
2018-03-01T11:00:07.363Z,40.00
2018-03-01T11:01:07.353Z,41.00
2018-03-01T11:02:07.344Z,40.50
2018-03-01T11:03:07.335Z,40.80
2018-03-01T11:04:07.353Z,39.50
2018-03-01T11:05:07.316Z,38.00
2018-03-01T11:06:07.305Z,41.60
2018-03-01T11:07:07.296Z,41.90
2018-03-01T11:08:07.286Z,44.40
2018-03-01T11:09:07.278Z,40.90
2018-03-01T11:10:07.267Z,41.50
2018-03-01T11:11:07.259Z,45.20
2018-03-01T11:12:07.249Z,44.70
2018-03-01T11:13:07.239Z,43.10
2018-03-01T11:14:07.229Z,41.60
2018-03-01T11:15:07.224Z,40.80
2018-03-01T11:16:07.210Z,46.80
2018-03-01T11:17:07.206Z,45.90
2018-03-01T11:18:07.191Z,49.00
2018-03-01T11:19:07.181Z,39.80
2018-03-01T11:20:07.172Z,44.00
2018-03-01T11:21:07.162Z,48.20
2018-03-01T11:22:07.173Z,38.40
2018-03-01T11:23:07.145Z,40.60
2018-03-01T11:24:07.139Z,39.20
2018-03-01T11:25:07.126Z,38.90
2018-03-01T11:26:07.115Z,42.30
2018-03-01T11:27:07.107Z,42.40
2018-03-01T11:28:07.097Z,39.40
2018-03-01T11:29:07.088Z,43.60
2018-03-01T11:30:07.284Z,46.70
2018-03-01T11:31:07.069Z,48.30
2018-03-01T11:32:07.059Z,46.10
2018-03-01T11:33:07.336Z,39.10
2018-03-01T11:34:07.040Z,42.10
2018-03-01T11:35:07.480Z,46.80
2018-03-01T11:36:07.022Z,42.90
2018-03-01T11:37:07.013Z,42.70
2018-03-01T11:38:07.003Z,41.60
2018-03-01T11:39:06.994Z,43.20
2018-03-01T11:40:06.984Z,44.70
2018-03-01T11:41:06.975Z,44.80
2018-03-01T11:42:06.964Z,43.30
2018-03-01T11:43:06.956Z,41.10
2018-03-01T11:44:06.951Z,47.50
2018-03-01T11:45:06.937Z,48.40
2018-03-01T11:46:06.927Z,43.10
2018-03-01T11:47:06.918Z,45.80
2018-03-01T11:48:06.942Z,42.90
2018-03-01T11:49:06.901Z,45.60
2018-03-01T11:50:06.890Z,41.90
2018-03-01T11:51:06.880Z,41.80
2018-03-01T11:52:06.871Z,43.20
2018-03-01T11:53:06.862Z,48.30
2018-03-01T11:54:06.851Z,44.10
2018-03-01T11:55:06.843Z,42.90
2018-03-01T11:56:06.836Z,44.10
2018-03-01T11:57:06.825Z,42.00
2018-03-01T11:58:06.816Z,41.60
2018-03-01T11:59:06.806Z,46.80
2018-03-01T12:00:06.798Z,45.50
2018-03-01T12:01:06.790Z,41.30
2018-03-01T12:02:06.778Z,47.70
2018-03-01T12:03:06.770Z,45.70
2018-03-01T12:04:06.760Z,43.40
2018-03-01T12:05:06.751Z,47.10
2018-03-01T12:06:06.741Z,40.00
2018-03-01T12:07:06.733Z,41.00
2018-03-01T12:08:06.725Z,45.40
2018-03-01T12:09:06.715Z,47.70
2018-03-01T12:10:06.706Z,48.00
2018-03-01T12:11:06.697Z,44.90
2018-03-01T12:12:06.689Z,46.50
2018-03-01T12:13:06.680Z,42.90
2018-03-01T12:14:06.672Z,45.20
2018-03-01T12:15:06.664Z,45.60
2018-03-01T12:16:06.654Z,42.80
2018-03-01T12:17:06.646Z,45.60
2018-03-01T12:18:06.640Z,45.40
2018-03-01T12:19:06.628Z,44.60
2018-03-01T12:20:06.620Z,44.70
2018-03-01T12:21:06.611Z,45.20
2018-03-01T12:22:06.630Z,42.40
2018-03-01T12:23:06.595Z,47.40
2018-03-01T12:24:06.585Z,41.60
2018-03-01T12:25:06.577Z,47.90
2018-03-01T12:26:06.569Z,48.80
2018-03-01T12:27:06.559Z,40.80
2018-03-01T12:28:06.551Z,42.90
2018-03-01T12:29:06.544Z,44.80
2018-03-01T12:30:06.535Z,46.90
2018-03-01T12:31:06.525Z,41.90
2018-03-01T12:32:06.517Z,45.10
2018-03-01T12:33:06.509Z,41.50
2018-03-01T12:34:06.500Z,53.70
2018-03-01T12:35:06.492Z,48.10
2018-03-01T12:36:06.484Z,46.00
2018-03-01T12:37:06.475Z,39.90
2018-03-01T12:38:06.468Z,43.90
2018-03-01T12:39:06.458Z,46.60
2018-03-01T12:40:06.449Z,42.30
2018-03-01T12:41:06.549Z,43.90
2018-03-01T12:42:06.431Z,41.30
2018-03-01T12:43:06.422Z,45.00
2018-03-01T12:44:06.415Z,49.80
2018-03-01T12:45:06.406Z,43.70
2018-03-01T12:46:06.429Z,47.10
2018-03-01T12:47:06.387Z,48.30
2018-03-01T12:48:06.380Z,45.40
2018-03-01T12:49:06.373Z,44.60
2018-03-01T12:50:06.364Z,48.10
2018-03-01T12:51:06.352Z,47.70
2018-03-01T12:52:06.372Z,42.50
2018-03-01T12:53:06.335Z,47.20